sensor_id;sensor_type;location;lat;lon;timestamp;P1;durP1;ratioP1;P2;durP2;ratioP2
51907;SDS011;39320;53.214;6.556;2024-03-22T00:00:06;7.03;;;6.53;;
51907;SDS011;39320;53.214;6.556;2024-03-22T00:02:36;7.93;;;7.30;;
51907;SDS011;39320;53.214;6.556;2024-03-22T00:05:03;7.65;;;7.05;;
51907;SDS011;39320;53.214;6.556;2024-03-22T00:07:29;6.65;;;6.15;;
51907;SDS011;39320;53.214;6.556;2024-03-22T00:09:55;7.90;;;7.30;;
51907;SDS011;39320;53.214;6.556;2024-03-22T00:12:21;7.05;;;6.55;;
51907;SDS011;39320;53.214;6.556;2024-03-22T00:14:47;6.72;;;6.22;;
51907;SDS011;39320;53.214;6.556;2024-03-22T00:17:13;6.57;;;6.07;;
51907;SDS011;39320;53.214;6.556;2024-03-22T00:19:39;8.07;;;7.40;;
51907;SDS011;39320;53.214;6.556;2024-03-22T00:22:05;8.15;;;7.50;;
51907;SDS011;39320;53.214;6.556;2024-03-22T00:24:30;6.43;;;6.03;;
51907;SDS011;39320;53.214;6.556;2024-03-22T00:26:56;7.45;;;6.85;;
51907;SDS011;39320;53.214;6.556;2024-03-22T00:29:21;6.80;;;6.30;;
51907;SDS011;39320;53.214;6.556;2024-03-22T00:31:47;8.40;;;7.80;;
51907;SDS011;39320;53.214;6.556;2024-03-22T00:34:13;7.35;;;6.75;;
51907;SDS011;39320;53.214;6.556;2024-03-22T00:36:38;6.97;;;6.47;;
51907;SDS011;39320;53.214;6.556;2024-03-22T00:39:04;7.28;;;6.78;;
51907;SDS011;39320;53.214;6.556;2024-03-22T00:41:30;7.60;;;7.00;;
51907;SDS011;39320;53.214;6.556;2024-03-22T00:43:56;7.82;;;7.22;;
51907;SDS011;39320;53.214;6.556;2024-03-22T00:46:23;7.95;;;7.35;;
51907;SDS011;39320;53.214;6.556;2024-03-22T00:48:48;7.82;;;7.22;;
51907;SDS011;39320;53.214;6.556;2024-03-22T00:51:14;8.70;;;8.10;;
51907;SDS011;39320;53.214;6.556;2024-03-22T00:53:40;8.40;;;7.70;;
51907;SDS011;39320;53.214;6.556;2024-03-22T00:56:06;8.73;;;8.05;;
51907;SDS011;39320;53.214;6.556;2024-03-22T00:58:31;8.43;;;7.72;;
51907;SDS011;39320;53.214;6.556;2024-03-22T01:00:58;8.63;;;7.93;;
51907;SDS011;39320;53.214;6.556;2024-03-22T01:03:23;8.05;;;7.40;;
51907;SDS011;39320;53.214;6.556;2024-03-22T01:05:49;9.38;;;8.68;;
51907;SDS011;39320;53.214;6.556;2024-03-22T01:08:15;8.45;;;7.82;;
51907;SDS011;39320;53.214;6.556;2024-03-22T01:10:41;9.23;;;8.52;;
51907;SDS011;39320;53.214;6.556;2024-03-22T01:13:07;9.13;;;8.43;;
51907;SDS011;39320;53.214;6.556;2024-03-22T01:15:32;8.63;;;7.93;;
51907;SDS011;39320;53.214;6.556;2024-03-22T01:17:58;9.18;;;8.38;;
51907;SDS011;39320;53.214;6.556;2024-03-22T01:20:24;9.27;;;8.55;;
51907;SDS011;39320;53.214;6.556;2024-03-22T01:22:49;9.43;;;8.73;;
51907;SDS011;39320;53.214;6.556;2024-03-22T01:25:15;10.02;;;9.23;;
51907;SDS011;39320;53.214;6.556;2024-03-22T01:27:41;9.60;;;8.80;;
51907;SDS011;39320;53.214;6.556;2024-03-22T01:30:07;9.68;;;8.88;;
51907;SDS011;39320;53.214;6.556;2024-03-22T01:32:34;9.75;;;9.02;;
51907;SDS011;39320;53.214;6.556;2024-03-22T01:35:00;9.90;;;9.10;;
51907;SDS011;39320;53.214;6.556;2024-03-22T01:37:26;9.93;;;9.23;;
51907;SDS011;39320;53.214;6.556;2024-03-22T01:39:51;9.68;;;8.93;;
51907;SDS011;39320;53.214;6.556;2024-03-22T01:42:17;10.32;;;9.52;;
51907;SDS011;39320;53.214;6.556;2024-03-22T01:44:43;9.80;;;9.00;;
51907;SDS011;39320;53.214;6.556;2024-03-22T01:47:08;10.23;;;9.43;;
51907;SDS011;39320;53.214;6.556;2024-03-22T01:49:34;10.02;;;9.23;;
51907;SDS011;39320;53.214;6.556;2024-03-22T01:52:00;11.02;;;10.13;;
51907;SDS011;39320;53.214;6.556;2024-03-22T01:54:26;11.13;;;10.25;;
51907;SDS011;39320;53.214;6.556;2024-03-22T01:56:52;10.50;;;9.60;;
51907;SDS011;39320;53.214;6.556;2024-03-22T01:59:18;10.85;;;10.05;;
51907;SDS011;39320;53.214;6.556;2024-03-22T02:01:45;11.07;;;10.20;;
51907;SDS011;39320;53.214;6.556;2024-03-22T02:04:10;12.10;;;11.13;;
51907;SDS011;39320;53.214;6.556;2024-03-22T02:06:36;10.88;;;9.98;;
51907;SDS011;39320;53.214;6.556;2024-03-22T02:09:02;11.45;;;10.45;;
51907;SDS011;39320;53.214;6.556;2024-03-22T02:11:30;13.20;;;12.00;;
51907;SDS011;39320;53.214;6.556;2024-03-22T02:13:57;12.10;;;11.10;;
51907;SDS011;39320;53.214;6.556;2024-03-22T02:16:23;11.43;;;10.48;;
51907;SDS011;39320;53.214;6.556;2024-03-22T02:18:48;12.23;;;11.20;;
51907;SDS011;39320;53.214;6.556;2024-03-22T02:21:15;13.05;;;12.00;;
51907;SDS011;39320;53.214;6.556;2024-03-22T02:23:40;12.48;;;11.55;;
51907;SDS011;39320;53.214;6.556;2024-03-22T02:26:06;12.20;;;11.20;;
51907;SDS011;39320;53.214;6.556;2024-03-22T02:28:33;11.82;;;10.93;;
51907;SDS011;39320;53.214;6.556;2024-03-22T02:31:00;13.10;;;12.05;;
51907;SDS011;39320;53.214;6.556;2024-03-22T02:33:26;12.32;;;11.32;;
51907;SDS011;39320;53.214;6.556;2024-03-22T02:35:52;12.82;;;11.73;;
51907;SDS011;39320;53.214;6.556;2024-03-22T02:38:18;12.68;;;11.65;;
51907;SDS011;39320;53.214;6.556;2024-03-22T02:40:44;13.38;;;12.15;;
51907;SDS011;39320;53.214;6.556;2024-03-22T02:43:11;12.55;;;11.55;;
51907;SDS011;39320;53.214;6.556;2024-03-22T02:45:37;12.68;;;11.68;;
51907;SDS011;39320;53.214;6.556;2024-03-22T02:48:03;12.98;;;11.77;;
51907;SDS011;39320;53.214;6.556;2024-03-22T02:50:32;12.93;;;11.93;;
51907;SDS011;39320;53.214;6.556;2024-03-22T02:52:59;13.40;;;12.30;;
51907;SDS011;39320;53.214;6.556;2024-03-22T02:55:24;12.48;;;11.45;;
51907;SDS011;39320;53.214;6.556;2024-03-22T02:57:50;14.45;;;13.15;;
51907;SDS011;39320;53.214;6.556;2024-03-22T03:00:16;13.90;;;12.60;;
51907;SDS011;39320;53.214;6.556;2024-03-22T03:02:43;13.07;;;11.98;;
51907;SDS011;39320;53.214;6.556;2024-03-22T03:05:09;13.95;;;12.75;;
51907;SDS011;39320;53.214;6.556;2024-03-22T03:07:35;13.77;;;12.68;;
51907;SDS011;39320;53.214;6.556;2024-03-22T03:10:00;13.45;;;12.35;;
51907;SDS011;39320;53.214;6.556;2024-03-22T03:12:26;14.43;;;13.10;;
51907;SDS011;39320;53.214;6.556;2024-03-22T03:14:52;14.75;;;13.45;;
51907;SDS011;39320;53.214;6.556;2024-03-22T03:17:17;13.57;;;12.38;;
51907;SDS011;39320;53.214;6.556;2024-03-22T03:19:44;14.45;;;13.25;;
51907;SDS011;39320;53.214;6.556;2024-03-22T03:22:09;14.02;;;12.77;;
51907;SDS011;39320;53.214;6.556;2024-03-22T03:24:35;14.15;;;12.95;;
51907;SDS011;39320;53.214;6.556;2024-03-22T03:27:01;14.55;;;13.30;;
51907;SDS011;39320;53.214;6.556;2024-03-22T03:29:27;15.02;;;13.82;;
51907;SDS011;39320;53.214;6.556;2024-03-22T03:31:53;14.40;;;13.20;;
51907;SDS011;39320;53.214;6.556;2024-03-22T03:34:19;15.18;;;13.88;;
51907;SDS011;39320;53.214;6.556;2024-03-22T03:36:45;15.07;;;13.77;;
51907;SDS011;39320;53.214;6.556;2024-03-22T03:39:11;16.02;;;14.52;;
51907;SDS011;39320;53.214;6.556;2024-03-22T03:41:37;13.88;;;12.55;;
51907;SDS011;39320;53.214;6.556;2024-03-22T03:44:02;14.43;;;13.27;;
51907;SDS011;39320;53.214;6.556;2024-03-22T03:46:28;14.50;;;13.10;;
51907;SDS011;39320;53.214;6.556;2024-03-22T03:48:54;14.25;;;12.95;;
51907;SDS011;39320;53.214;6.556;2024-03-22T03:51:19;15.20;;;13.90;;
51907;SDS011;39320;53.214;6.556;2024-03-22T03:53:45;14.80;;;13.40;;
51907;SDS011;39320;53.214;6.556;2024-03-22T03:56:11;14.00;;;12.82;;
51907;SDS011;39320;53.214;6.556;2024-03-22T03:58:36;15.52;;;14.02;;
51907;SDS011;39320;53.214;6.556;2024-03-22T04:01:08;14.23;;;12.93;;
51907;SDS011;39320;53.214;6.556;2024-03-22T04:03:34;14.38;;;13.18;;
51907;SDS011;39320;53.214;6.556;2024-03-22T04:06:00;14.48;;;13.30;;
51907;SDS011;39320;53.214;6.556;2024-03-22T04:08:27;14.25;;;12.95;;
51907;SDS011;39320;53.214;6.556;2024-03-22T04:10:53;15.45;;;14.05;;
51907;SDS011;39320;53.214;6.556;2024-03-22T04:13:22;13.90;;;12.60;;
51907;SDS011;39320;53.214;6.556;2024-03-22T04:15:48;15.00;;;13.70;;
51907;SDS011;39320;53.214;6.556;2024-03-22T04:18:14;14.85;;;13.43;;
51907;SDS011;39320;53.214;6.556;2024-03-22T04:20:39;14.93;;;13.52;;
51907;SDS011;39320;53.214;6.556;2024-03-22T04:23:05;14.02;;;12.73;;
51907;SDS011;39320;53.214;6.556;2024-03-22T04:25:31;14.25;;;13.00;;
51907;SDS011;39320;53.214;6.556;2024-03-22T04:27:56;12.88;;;11.77;;
51907;SDS011;39320;53.214;6.556;2024-03-22T04:30:22;14.02;;;12.82;;
51907;SDS011;39320;53.214;6.556;2024-03-22T04:32:48;13.63;;;12.43;;
51907;SDS011;39320;53.214;6.556;2024-03-22T04:35:13;14.02;;;12.82;;
51907;SDS011;39320;53.214;6.556;2024-03-22T04:37:39;13.70;;;12.30;;
51907;SDS011;39320;53.214;6.556;2024-03-22T04:40:05;14.70;;;13.32;;
51907;SDS011;39320;53.214;6.556;2024-03-22T04:42:31;14.00;;;12.75;;
51907;SDS011;39320;53.214;6.556;2024-03-22T04:44:57;15.40;;;14.02;;
51907;SDS011;39320;53.214;6.556;2024-03-22T04:47:23;13.15;;;11.85;;
51907;SDS011;39320;53.214;6.556;2024-03-22T04:49:48;14.25;;;13.15;;
51907;SDS011;39320;53.214;6.556;2024-03-22T04:52:14;13.75;;;12.50;;
51907;SDS011;39320;53.214;6.556;2024-03-22T04:54:40;14.23;;;12.88;;
51907;SDS011;39320;53.214;6.556;2024-03-22T04:57:06;13.15;;;11.93;;
51907;SDS011;39320;53.214;6.556;2024-03-22T04:59:31;13.48;;;12.27;;
51907;SDS011;39320;53.214;6.556;2024-03-22T05:01:57;14.38;;;13.07;;
51907;SDS011;39320;53.214;6.556;2024-03-22T05:04:23;12.73;;;11.52;;
51907;SDS011;39320;53.214;6.556;2024-03-22T05:06:49;14.15;;;12.70;;
51907;SDS011;39320;53.214;6.556;2024-03-22T05:09:14;12.23;;;11.13;;
51907;SDS011;39320;53.214;6.556;2024-03-22T05:11:40;12.10;;;11.07;;
51907;SDS011;39320;53.214;6.556;2024-03-22T05:14:06;13.57;;;12.38;;
51907;SDS011;39320;53.214;6.556;2024-03-22T05:16:32;14.05;;;12.93;;
51907;SDS011;39320;53.214;6.556;2024-03-22T05:18:57;13.55;;;12.18;;
51907;SDS011;39320;53.214;6.556;2024-03-22T05:21:23;12.60;;;11.50;;
51907;SDS011;39320;53.214;6.556;2024-03-22T05:23:49;12.68;;;11.48;;
51907;SDS011;39320;53.214;6.556;2024-03-22T05:26:15;12.75;;;11.63;;
51907;SDS011;39320;53.214;6.556;2024-03-22T05:28:40;12.18;;;11.15;;
51907;SDS011;39320;53.214;6.556;2024-03-22T05:31:06;12.52;;;11.32;;
51907;SDS011;39320;53.214;6.556;2024-03-22T05:33:32;12.60;;;11.60;;
51907;SDS011;39320;53.214;6.556;2024-03-22T05:35:57;12.60;;;11.43;;
51907;SDS011;39320;53.214;6.556;2024-03-22T05:38:24;11.65;;;10.65;;
51907;SDS011;39320;53.214;6.556;2024-03-22T05:40:49;12.38;;;11.13;;
51907;SDS011;39320;53.214;6.556;2024-03-22T05:43:15;11.85;;;10.82;;
51907;SDS011;39320;53.214;6.556;2024-03-22T05:45:41;11.80;;;10.73;;
51907;SDS011;39320;53.214;6.556;2024-03-22T05:48:07;12.20;;;11.10;;
51907;SDS011;39320;53.214;6.556;2024-03-22T05:50:32;11.88;;;10.75;;
51907;SDS011;39320;53.214;6.556;2024-03-22T05:52:58;12.13;;;10.93;;
51907;SDS011;39320;53.214;6.556;2024-03-22T05:55:24;12.48;;;11.35;;
51907;SDS011;39320;53.214;6.556;2024-03-22T05:57:52;11.32;;;10.20;;
51907;SDS011;39320;53.214;6.556;2024-03-22T06:00:18;11.65;;;10.55;;
51907;SDS011;39320;53.214;6.556;2024-03-22T06:02:44;11.60;;;10.63;;
51907;SDS011;39320;53.214;6.556;2024-03-22T06:05:09;11.55;;;10.52;;
51907;SDS011;39320;53.214;6.556;2024-03-22T06:07:35;11.57;;;10.48;;
51907;SDS011;39320;53.214;6.556;2024-03-22T06:10:07;10.48;;;9.57;;
51907;SDS011;39320;53.214;6.556;2024-03-22T06:12:34;10.80;;;9.90;;
51907;SDS011;39320;53.214;6.556;2024-03-22T06:15:00;10.48;;;9.40;;
51907;SDS011;39320;53.214;6.556;2024-03-22T06:17:26;9.32;;;8.38;;
51907;SDS011;39320;53.214;6.556;2024-03-22T06:19:52;9.20;;;8.45;;
51907;SDS011;39320;53.214;6.556;2024-03-22T06:22:18;9.60;;;8.77;;
51907;SDS011;39320;53.214;6.556;2024-03-22T06:24:44;8.70;;;7.97;;
51907;SDS011;39320;53.214;6.556;2024-03-22T06:27:10;8.73;;;7.97;;
51907;SDS011;39320;53.214;6.556;2024-03-22T06:29:35;8.30;;;7.57;;
51907;SDS011;39320;53.214;6.556;2024-03-22T06:32:01;7.68;;;6.90;;
51907;SDS011;39320;53.214;6.556;2024-03-22T06:34:27;8.63;;;7.72;;
51907;SDS011;39320;53.214;6.556;2024-03-22T06:36:53;7.50;;;6.82;;
51907;SDS011;39320;53.214;6.556;2024-03-22T06:39:18;7.63;;;6.93;;
51907;SDS011;39320;53.214;6.556;2024-03-22T06:41:44;7.43;;;6.80;;
51907;SDS011;39320;53.214;6.556;2024-03-22T06:44:10;7.97;;;6.75;;
51907;SDS011;39320;53.214;6.556;2024-03-22T06:46:37;8.55;;;7.72;;
51907;SDS011;39320;53.214;6.556;2024-03-22T06:49:03;9.60;;;6.93;;
51907;SDS011;39320;53.214;6.556;2024-03-22T06:51:28;7.97;;;6.78;;
51907;SDS011;39320;53.214;6.556;2024-03-22T06:53:54;7.55;;;6.85;;
51907;SDS011;39320;53.214;6.556;2024-03-22T06:56:20;7.78;;;6.75;;
51907;SDS011;39320;53.214;6.556;2024-03-22T06:58:46;7.63;;;6.93;;
51907;SDS011;39320;53.214;6.556;2024-03-22T07:01:12;7.25;;;6.55;;
51907;SDS011;39320;53.214;6.556;2024-03-22T07:03:38;6.70;;;6.00;;
51907;SDS011;39320;53.214;6.556;2024-03-22T07:06:03;7.90;;;7.10;;
51907;SDS011;39320;53.214;6.556;2024-03-22T07:08:32;7.20;;;6.50;;
51907;SDS011;39320;53.214;6.556;2024-03-22T07:10:59;7.45;;;6.45;;
51907;SDS011;39320;53.214;6.556;2024-03-22T07:13:24;6.93;;;6.32;;
51907;SDS011;39320;53.214;6.556;2024-03-22T07:15:50;7.00;;;6.35;;
51907;SDS011;39320;53.214;6.556;2024-03-22T07:18:16;6.07;;;5.47;;
51907;SDS011;39320;53.214;6.556;2024-03-22T07:20:42;7.05;;;6.45;;
51907;SDS011;39320;53.214;6.556;2024-03-22T07:23:08;6.75;;;6.13;;
51907;SDS011;39320;53.214;6.556;2024-03-22T07:25:34;6.70;;;6.20;;
51907;SDS011;39320;53.214;6.556;2024-03-22T07:27:59;6.35;;;5.78;;
51907;SDS011;39320;53.214;6.556;2024-03-22T07:30:25;8.07;;;6.75;;
51907;SDS011;39320;53.214;6.556;2024-03-22T07:32:51;7.22;;;6.63;;
51907;SDS011;39320;53.214;6.556;2024-03-22T07:35:16;6.78;;;6.20;;
51907;SDS011;39320;53.214;6.556;2024-03-22T07:37:42;8.38;;;6.22;;
51907;SDS011;39320;53.214;6.556;2024-03-22T07:40:08;6.85;;;6.18;;
51907;SDS011;39320;53.214;6.556;2024-03-22T07:42:34;6.43;;;5.82;;
51907;SDS011;39320;53.214;6.556;2024-03-22T07:45:00;7.15;;;6.55;;
51907;SDS011;39320;53.214;6.556;2024-03-22T07:47:26;6.82;;;6.22;;
51907;SDS011;39320;53.214;6.556;2024-03-22T07:49:51;6.45;;;5.57;;
51907;SDS011;39320;53.214;6.556;2024-03-22T07:52:17;6.40;;;5.80;;
51907;SDS011;39320;53.214;6.556;2024-03-22T07:54:44;5.95;;;5.40;;
51907;SDS011;39320;53.214;6.556;2024-03-22T07:57:09;7.25;;;6.55;;
51907;SDS011;39320;53.214;6.556;2024-03-22T07:59:36;6.75;;;6.25;;
51907;SDS011;39320;53.214;6.556;2024-03-22T08:02:02;6.13;;;5.63;;
51907;SDS011;39320;53.214;6.556;2024-03-22T08:04:28;6.32;;;5.40;;
51907;SDS011;39320;53.214;6.556;2024-03-22T08:06:54;6.22;;;5.72;;
51907;SDS011;39320;53.214;6.556;2024-03-22T08:09:20;5.78;;;5.28;;
51907;SDS011;39320;53.214;6.556;2024-03-22T08:11:46;6.22;;;5.72;;
51907;SDS011;39320;53.214;6.556;2024-03-22T08:14:13;6.35;;;5.75;;
51907;SDS011;39320;53.214;6.556;2024-03-22T08:16:38;5.93;;;5.43;;
51907;SDS011;39320;53.214;6.556;2024-03-22T08:19:04;6.25;;;5.65;;
51907;SDS011;39320;53.214;6.556;2024-03-22T08:21:30;5.38;;;4.88;;
51907;SDS011;39320;53.214;6.556;2024-03-22T08:23:55;5.20;;;4.72;;
51907;SDS011;39320;53.214;6.556;2024-03-22T08:26:21;5.05;;;4.65;;
51907;SDS011;39320;53.214;6.556;2024-03-22T08:28:47;4.90;;;4.50;;
51907;SDS011;39320;53.214;6.556;2024-03-22T08:31:14;4.50;;;4.15;;
51907;SDS011;39320;53.214;6.556;2024-03-22T08:33:40;5.32;;;4.82;;
51907;SDS011;39320;53.214;6.556;2024-03-22T08:36:06;5.78;;;4.93;;
51907;SDS011;39320;53.214;6.556;2024-03-22T08:38:31;5.35;;;4.88;;
51907;SDS011;39320;53.214;6.556;2024-03-22T08:40:57;4.07;;;3.67;;
51907;SDS011;39320;53.214;6.556;2024-03-22T08:43:22;4.25;;;3.88;;
51907;SDS011;39320;53.214;6.556;2024-03-22T08:45:51;3.97;;;3.67;;
51907;SDS011;39320;53.214;6.556;2024-03-22T08:48:17;4.05;;;3.65;;
51907;SDS011;39320;53.214;6.556;2024-03-22T08:50:43;3.63;;;3.33;;
51907;SDS011;39320;53.214;6.556;2024-03-22T08:53:09;3.78;;;3.47;;
51907;SDS011;39320;53.214;6.556;2024-03-22T08:55:35;3.65;;;3.17;;
51907;SDS011;39320;53.214;6.556;2024-03-22T08:58:01;3.92;;;3.63;;
51907;SDS011;39320;53.214;6.556;2024-03-22T09:00:28;3.33;;;3.05;;
51907;SDS011;39320;53.214;6.556;2024-03-22T09:02:54;3.20;;;2.90;;
51907;SDS011;39320;53.214;6.556;2024-03-22T09:05:20;3.05;;;2.85;;
51907;SDS011;39320;53.214;6.556;2024-03-22T09:07:46;2.90;;;2.70;;
51907;SDS011;39320;53.214;6.556;2024-03-22T09:10:13;3.15;;;2.85;;
51907;SDS011;39320;53.214;6.556;2024-03-22T09:12:39;2.60;;;2.40;;
51907;SDS011;39320;53.214;6.556;2024-03-22T09:15:05;2.83;;;2.63;;
51907;SDS011;39320;53.214;6.556;2024-03-22T09:17:32;2.85;;;2.60;;
51907;SDS011;39320;53.214;6.556;2024-03-22T09:19:58;2.90;;;2.60;;
51907;SDS011;39320;53.214;6.556;2024-03-22T09:22:24;2.78;;;2.58;;
51907;SDS011;39320;53.214;6.556;2024-03-22T09:24:49;3.08;;;2.88;;
51907;SDS011;39320;53.214;6.556;2024-03-22T09:27:15;2.70;;;2.50;;
51907;SDS011;39320;53.214;6.556;2024-03-22T09:29:41;2.90;;;2.70;;
51907;SDS011;39320;53.214;6.556;2024-03-22T09:32:08;2.72;;;2.53;;
51907;SDS011;39320;53.214;6.556;2024-03-22T09:34:34;2.40;;;2.20;;
51907;SDS011;39320;53.214;6.556;2024-03-22T09:37:00;2.58;;;2.38;;
51907;SDS011;39320;53.214;6.556;2024-03-22T09:39:26;3.17;;;2.90;;
51907;SDS011;39320;53.214;6.556;2024-03-22T09:41:53;2.45;;;2.35;;
51907;SDS011;39320;53.214;6.556;2024-03-22T09:44:22;2.58;;;2.38;;
51907;SDS011;39320;53.214;6.556;2024-03-22T09:46:48;2.58;;;2.38;;
51907;SDS011;39320;53.214;6.556;2024-03-22T09:49:16;2.75;;;2.55;;
51907;SDS011;39320;53.214;6.556;2024-03-22T09:51:43;3.22;;;2.92;;
51907;SDS011;39320;53.214;6.556;2024-03-22T09:54:09;2.40;;;2.20;;
51907;SDS011;39320;53.214;6.556;2024-03-22T09:56:35;2.40;;;2.20;;
51907;SDS011;39320;53.214;6.556;2024-03-22T09:59:04;2.70;;;2.50;;
51907;SDS011;39320;53.214;6.556;2024-03-22T10:01:37;2.67;;;2.47;;
51907;SDS011;39320;53.214;6.556;2024-03-22T10:04:05;2.40;;;2.20;;
51907;SDS011;39320;53.214;6.556;2024-03-22T10:06:30;2.72;;;2.53;;
51907;SDS011;39320;53.214;6.556;2024-03-22T10:09:00;1.90;;;1.80;;
51907;SDS011;39320;53.214;6.556;2024-03-22T10:11:26;2.42;;;2.22;;
51907;SDS011;39320;53.214;6.556;2024-03-22T10:13:52;2.20;;;2.00;;
51907;SDS011;39320;53.214;6.556;2024-03-22T10:16:20;2.03;;;1.92;;
51907;SDS011;39320;53.214;6.556;2024-03-22T10:18:47;1.90;;;1.80;;
51907;SDS011;39320;53.214;6.556;2024-03-22T10:21:16;2.33;;;2.13;;
51907;SDS011;39320;53.214;6.556;2024-03-22T10:23:46;2.03;;;1.90;;
51907;SDS011;39320;53.214;6.556;2024-03-22T10:26:13;1.75;;;1.65;;
51907;SDS011;39320;53.214;6.556;2024-03-22T10:28:46;1.38;;;1.30;;
51907;SDS011;39320;53.214;6.556;2024-03-22T10:31:12;1.67;;;1.58;;
51907;SDS011;39320;53.214;6.556;2024-03-22T10:33:40;2.28;;;2.08;;
51907;SDS011;39320;53.214;6.556;2024-03-22T10:36:06;1.50;;;1.40;;
51907;SDS011;39320;53.214;6.556;2024-03-22T10:38:33;1.50;;;1.40;;
51907;SDS011;39320;53.214;6.556;2024-03-22T10:41:03;1.58;;;1.48;;
51907;SDS011;39320;53.214;6.556;2024-03-22T10:43:30;2.08;;;1.88;;
51907;SDS011;39320;53.214;6.556;2024-03-22T10:45:56;1.25;;;1.15;;
51907;SDS011;39320;53.214;6.556;2024-03-22T10:48:27;1.17;;;1.10;;
51907;SDS011;39320;53.214;6.556;2024-03-22T10:50:55;1.75;;;1.60;;
51907;SDS011;39320;53.214;6.556;2024-03-22T10:53:25;1.45;;;1.35;;
51907;SDS011;39320;53.214;6.556;2024-03-22T10:55:53;1.42;;;1.33;;
51907;SDS011;39320;53.214;6.556;2024-03-22T10:58:22;1.10;;;1.00;;
51907;SDS011;39320;53.214;6.556;2024-03-22T11:00:51;1.33;;;1.23;;
51907;SDS011;39320;53.214;6.556;2024-03-22T11:03:21;1.35;;;1.25;;
51907;SDS011;39320;53.214;6.556;2024-03-22T11:05:54;1.55;;;1.45;;
51907;SDS011;39320;53.214;6.556;2024-03-22T11:08:25;1.35;;;1.25;;
51907;SDS011;39320;53.214;6.556;2024-03-22T11:10:51;1.30;;;1.20;;
51907;SDS011;39320;53.214;6.556;2024-03-22T11:13:18;1.13;;;1.02;;
51907;SDS011;39320;53.214;6.556;2024-03-22T11:15:46;1.27;;;1.00;;
51907;SDS011;39320;53.214;6.556;2024-03-22T11:18:13;1.38;;;1.27;;
51907;SDS011;39320;53.214;6.556;2024-03-22T11:20:38;1.30;;;1.23;;
51907;SDS011;39320;53.214;6.556;2024-03-22T11:23:04;1.40;;;1.08;;
51907;SDS011;39320;53.214;6.556;2024-03-22T11:25:32;1.48;;;1.38;;
51907;SDS011;39320;53.214;6.556;2024-03-22T11:27:58;1.20;;;1.00;;
51907;SDS011;39320;53.214;6.556;2024-03-22T11:30:26;1.70;;;1.10;;
51907;SDS011;39320;53.214;6.556;2024-03-22T11:32:53;1.20;;;1.10;;
51907;SDS011;39320;53.214;6.556;2024-03-22T11:35:19;1.00;;;1.00;;
51907;SDS011;39320;53.214;6.556;2024-03-22T11:37:45;1.10;;;1.00;;
51907;SDS011;39320;53.214;6.556;2024-03-22T11:40:11;1.27;;;1.17;;
51907;SDS011;39320;53.214;6.556;2024-03-22T11:42:38;1.20;;;1.10;;
51907;SDS011;39320;53.214;6.556;2024-03-22T11:45:06;1.60;;;1.10;;
51907;SDS011;39320;53.214;6.556;2024-03-22T11:47:35;1.30;;;1.20;;
51907;SDS011;39320;53.214;6.556;2024-03-22T11:50:01;1.00;;;1.00;;
51907;SDS011;39320;53.214;6.556;2024-03-22T11:52:27;0.75;;;0.70;;
51907;SDS011;39320;53.214;6.556;2024-03-22T11:54:54;1.08;;;1.00;;
51907;SDS011;39320;53.214;6.556;2024-03-22T11:57:20;1.13;;;1.02;;
51907;SDS011;39320;53.214;6.556;2024-03-22T11:59:46;1.58;;;0.70;;
51907;SDS011;39320;53.214;6.556;2024-03-22T12:02:12;0.98;;;0.90;;
51907;SDS011;39320;53.214;6.556;2024-03-22T12:04:47;1.33;;;1.20;;
51907;SDS011;39320;53.214;6.556;2024-03-22T12:07:13;0.80;;;0.80;;
51907;SDS011;39320;53.214;6.556;2024-03-22T12:09:40;1.45;;;0.80;;
51907;SDS011;39320;53.214;6.556;2024-03-22T12:12:07;1.48;;;1.38;;
51907;SDS011;39320;53.214;6.556;2024-03-22T12:14:34;1.35;;;1.25;;
51907;SDS011;39320;53.214;6.556;2024-03-22T12:17:01;1.40;;;1.30;;
51907;SDS011;39320;53.214;6.556;2024-03-22T12:19:27;1.60;;;1.50;;
51907;SDS011;39320;53.214;6.556;2024-03-22T12:21:53;1.88;;;1.73;;
51907;SDS011;39320;53.214;6.556;2024-03-22T12:24:19;1.50;;;1.25;;
51907;SDS011;39320;53.214;6.556;2024-03-22T12:26:45;1.42;;;1.17;;
51907;SDS011;39320;53.214;6.556;2024-03-22T12:29:12;1.88;;;1.30;;
51907;SDS011;39320;53.214;6.556;2024-03-22T12:31:38;1.10;;;1.00;;
51907;SDS011;39320;53.214;6.556;2024-03-22T12:34:03;1.45;;;1.35;;
51907;SDS011;39320;53.214;6.556;2024-03-22T12:36:29;1.17;;;1.08;;
51907;SDS011;39320;53.214;6.556;2024-03-22T12:38:55;1.48;;;1.33;;
51907;SDS011;39320;53.214;6.556;2024-03-22T12:41:20;1.27;;;1.17;;
51907;SDS011;39320;53.214;6.556;2024-03-22T12:43:46;1.40;;;1.30;;
51907;SDS011;39320;53.214;6.556;2024-03-22T12:46:12;1.50;;;1.40;;
51907;SDS011;39320;53.214;6.556;2024-03-22T12:48:37;1.40;;;1.30;;
51907;SDS011;39320;53.214;6.556;2024-03-22T12:51:03;2.05;;;1.60;;
51907;SDS011;39320;53.214;6.556;2024-03-22T12:53:29;1.92;;;1.60;;
51907;SDS011;39320;53.214;6.556;2024-03-22T12:55:55;1.95;;;1.80;;
51907;SDS011;39320;53.214;6.556;2024-03-22T12:58:20;1.58;;;1.48;;
51907;SDS011;39320;53.214;6.556;2024-03-22T13:00:46;2.03;;;1.50;;
51907;SDS011;39320;53.214;6.556;2024-03-22T13:03:12;2.05;;;1.85;;
51907;SDS011;39320;53.214;6.556;2024-03-22T13:05:40;2.00;;;1.60;;
51907;SDS011;39320;53.214;6.556;2024-03-22T13:08:05;2.42;;;2.10;;
51907;SDS011;39320;53.214;6.556;2024-03-22T13:10:32;2.97;;;2.10;;
51907;SDS011;39320;53.214;6.556;2024-03-22T13:12:58;2.67;;;2.20;;
51907;SDS011;39320;53.214;6.556;2024-03-22T13:15:24;3.35;;;1.90;;
51907;SDS011;39320;53.214;6.556;2024-03-22T13:17:50;3.00;;;2.17;;
51907;SDS011;39320;53.214;6.556;2024-03-22T13:20:17;2.60;;;2.25;;
51907;SDS011;39320;53.214;6.556;2024-03-22T13:22:44;2.95;;;2.13;;
51907;SDS011;39320;53.214;6.556;2024-03-22T13:25:09;2.80;;;2.00;;
51907;SDS011;39320;53.214;6.556;2024-03-22T13:27:35;3.92;;;2.10;;
51907;SDS011;39320;53.214;6.556;2024-03-22T13:30:03;5.05;;;2.70;;
51907;SDS011;39320;53.214;6.556;2024-03-22T13:32:30;3.35;;;2.22;;
51907;SDS011;39320;53.214;6.556;2024-03-22T13:34:56;3.70;;;2.38;;
51907;SDS011;39320;53.214;6.556;2024-03-22T13:37:22;3.13;;;2.47;;
51907;SDS011;39320;53.214;6.556;2024-03-22T13:39:48;2.95;;;2.30;;
51907;SDS011;39320;53.214;6.556;2024-03-22T13:42:14;4.65;;;2.53;;
51907;SDS011;39320;53.214;6.556;2024-03-22T13:44:41;3.20;;;2.22;;
51907;SDS011;39320;53.214;6.556;2024-03-22T13:47:07;3.22;;;2.70;;
51907;SDS011;39320;53.214;6.556;2024-03-22T13:49:33;4.55;;;2.83;;
51907;SDS011;39320;53.214;6.556;2024-03-22T13:51:59;2.20;;;2.00;;
51907;SDS011;39320;53.214;6.556;2024-03-22T13:54:25;3.33;;;2.05;;
51907;SDS011;39320;53.214;6.556;2024-03-22T13:56:50;1.80;;;1.48;;
51907;SDS011;39320;53.214;6.556;2024-03-22T13:59:16;3.13;;;1.98;;
51907;SDS011;39320;53.214;6.556;2024-03-22T14:01:42;3.25;;;2.20;;
51907;SDS011;39320;53.214;6.556;2024-03-22T14:04:10;3.63;;;2.10;;
51907;SDS011;39320;53.214;6.556;2024-03-22T14:06:36;2.75;;;2.03;;
51907;SDS011;39320;53.214;6.556;2024-03-22T14:09:03;2.38;;;1.70;;
51907;SDS011;39320;53.214;6.556;2024-03-22T14:11:33;2.15;;;1.95;;
51907;SDS011;39320;53.214;6.556;2024-03-22T14:13:58;3.38;;;2.00;;
51907;SDS011;39320;53.214;6.556;2024-03-22T14:16:24;3.55;;;2.13;;
51907;SDS011;39320;53.214;6.556;2024-03-22T14:18:50;2.60;;;2.20;;
51907;SDS011;39320;53.214;6.556;2024-03-22T14:21:17;2.05;;;1.85;;
51907;SDS011;39320;53.214;6.556;2024-03-22T14:23:46;3.55;;;2.33;;
51907;SDS011;39320;53.214;6.556;2024-03-22T14:26:12;3.22;;;2.30;;
51907;SDS011;39320;53.214;6.556;2024-03-22T14:28:38;2.70;;;2.38;;
51907;SDS011;39320;53.214;6.556;2024-03-22T14:31:05;3.97;;;2.42;;
51907;SDS011;39320;53.214;6.556;2024-03-22T14:33:38;2.08;;;1.88;;